M I D A S
Marine Information and Data Acquisition System
Tripno 1560 of the Zeeleeuw from 2008-09-05 06:16:24 to 2008-09-05 16:24:15
Back to CruiseResearch ActivitiesStationsMapUnderway DataData graphs

EquipmentUnitsComment
TimeDGPSUTC
LatitudeDGPSDM.mWGS84
LongitudeDGPSDM.mWGS84
HeadingGyrodeg 
SOGDGPSknotsSpeed over ground
COGDGPSdegCourse over ground
DepthEcho soundermeters200 kHz
Missing or incorrect values are displayed as -999
Navigation data collected by the RV Zeeleeuw from 2008-09-05 06:15:47 to 2008-09-05 16:25:32
                                                                                    Next 1000 lines
Time Latitude Longitude Heading SOG COG Depth
2008-09-05 06:15:57 51°13.622 2°56.044 103.5 0.8 278 9.1
2008-09-05 06:16:02 51°13.622 2°56.042 103 1.1 284 9.1
2008-09-05 06:16:07 51°13.623 2°56.039 102.8 1.4 285 9
2008-09-05 06:16:12 51°13.623 2°56.036 103 1.6 287 8.8
2008-09-05 06:16:17 51°13.624 2°56.032 103.8 1.8 287 9
2008-09-05 06:16:22 51°13.625 2°56.028 104.5 1.9 286 4.6
2008-09-05 06:16:27 51°13.626 2°56.024 105.6 2.1 288 -999
2008-09-05 06:16:32 51°13.627 2°56.019 106.4 2.3 289 -999
2008-09-05 06:16:37 51°13.628 2°56.014 107.3 2.5 291 -999
2008-09-05 06:16:42 51°13.629 2°56.008 108.1 2.6 290 -999
2008-09-05 06:16:47 51°13.631 2°56.002 109.2 2.8 291 -999
2008-09-05 06:16:52 51°13.632 2°55.996 110.2 3 290 -999
2008-09-05 06:16:57 51°13.633 2°55.99 111.4 3.2 292 -999
2008-09-05 06:17:02 51°13.635 2°55.983 112.1 3.4 291 -999
2008-09-05 06:17:07 51°13.637 2°55.975 112.5 3.6 293 -999
2008-09-05 06:17:12 51°13.639 2°55.968 112.9 3.8 293 -999
2008-09-05 06:17:17 51°13.641 2°55.959 113.1 4 293 -999
2008-09-05 06:17:22 51°13.644 2°55.951 113.6 4.1 293 -999
2008-09-05 06:17:27 51°13.646 2°55.943 114.1 4.2 294 -999
2008-09-05 06:17:32 51°13.649 2°55.934 114.6 4.3 294 -999
2008-09-05 06:17:37 51°13.651 2°55.925 115 4.4 295 -999
2008-09-05 06:17:42 51°13.654 2°55.916 115.5 4.5 296 -999
2008-09-05 06:17:47 51°13.657 2°55.907 115.6 4.5 296 -999
2008-09-05 06:17:52 51°13.659 2°55.898 115.5 4.5 296 -999
2008-09-05 06:17:57 51°13.662 2°55.889 115.1 4.6 296 -999
2008-09-05 06:18:02 51°13.665 2°55.88 114.4 4.6 296 -999
2008-09-05 06:18:07 51°13.668 2°55.871 113.4 4.5 296 -999
2008-09-05 06:18:12 51°13.67 2°55.862 112.4 4.3 294 -999
2008-09-05 06:18:17 51°13.672 2°55.854 111.6 4.2 293 -999
2008-09-05 06:18:22 51°13.674 2°55.845 110.5 4 292 -999
2008-09-05 06:18:27 51°13.676 2°55.837 109.5 4 292 -999
2008-09-05 06:18:32 51°13.678 2°55.829 108.7 3.9 291 -999
2008-09-05 06:18:37 51°13.68 2°55.821 107.7 3.7 290 -999
2008-09-05 06:18:42 51°13.682 2°55.814 106.6 3.7 290 -999
2008-09-05 06:18:47 51°13.684 2°55.806 105.1 3.6 289 -999
2008-09-05 06:18:52 51°13.685 2°55.799 103.5 3.5 287 -999
2008-09-05 06:18:57 51°13.686 2°55.791 101.5 3.4 285 -999
2008-09-05 06:19:02 51°13.688 2°55.784 99.2 3.4 283 -999
2008-09-05 06:19:07 51°13.689 2°55.777 96.7 3.3 281 -999
2008-09-05 06:19:12 51°13.689 2°55.77 94.2 3.2 278 -999
2008-09-05 06:19:17 51°13.69 2°55.763 91.8 3 277 -999
2008-09-05 06:19:22 51°13.69 2°55.757 89.7 2.9 275 -999
2008-09-05 06:19:27 51°13.69 2°55.751 87.9 2.8 274 11.9
2008-09-05 06:19:32 51°13.691 2°55.745 86.7 2.6 273 11.9
2008-09-05 06:19:37 51°13.691 2°55.739 85.2 2.4 273 -999
2008-09-05 06:19:42 51°13.69 2°55.734 84 2.2 270 12.3
2008-09-05 06:19:47 51°13.69 2°55.73 82.9 2 270 12.7
2008-09-05 06:19:52 51°13.69 2°55.726 81.4 1.7 268 12.5
2008-09-05 06:19:57 51°13.69 2°55.723 79.7 1.5 270 12.7
2008-09-05 06:20:02 51°13.69 2°55.72 78.2 1.2 272 12.6
2008-09-05 06:20:07 51°13.69 2°55.718 76 1 273 12.6
2008-09-05 06:20:12 51°13.69 2°55.716 74 0.8 277 12.6
2008-09-05 06:20:17 51°13.69 2°55.715 71.8 0.6 286 12.5
2008-09-05 06:20:22 51°13.691 2°55.715 69.9 0.3 312 12.5
2008-09-05 06:20:27 51°13.691 2°55.715 67.3 0.4 358 12.4
2008-09-05 06:20:32 51°13.692 2°55.715 63.3 0.5 27 12.5
2008-09-05 06:20:37 51°13.693 2°55.716 60.2 0.8 30 12.6
2008-09-05 06:20:42 51°13.694 2°55.717 55.1 1 36 12.9
2008-09-05 06:20:47 51°13.695 2°55.719 51.4 1.1 36 13.3
2008-09-05 06:20:52 51°13.697 2°55.72 46.5 1.4 33 14
2008-09-05 06:20:57 51°13.699 2°55.722 40.6 1.6 31 -999
2008-09-05 06:21:02 51°13.701 2°55.724 34.5 1.9 25 -999
2008-09-05 06:21:07 51°13.704 2°55.726 27.7 2.2 20 14.6
2008-09-05 06:21:12 51°13.707 2°55.727 22.9 2.5 15 13
2008-09-05 06:21:17 51°13.711 2°55.728 17.8 2.8 9 12.4
2008-09-05 06:21:22 51°13.715 2°55.729 11 3.1 2 12.7
2008-09-05 06:21:27 51°13.72 2°55.728 5.4 3.3 356 12.7
2008-09-05 06:21:32 51°13.725 2°55.726 356.7 3.6 348 12.5
2008-09-05 06:21:37 51°13.73 2°55.724 351.2 4.2 343 12.4
2008-09-05 06:21:42 51°13.736 2°55.72 343.3 4.7 338 11.8
2008-09-05 06:21:47 51°13.743 2°55.715 337.7 5.1 334 12
2008-09-05 06:21:52 51°13.749 2°55.709 333.6 5.5 331 12.5
2008-09-05 06:21:57 51°13.757 2°55.702 331.1 6 329 12.5
2008-09-05 06:22:02 51°13.764 2°55.695 329 6.3 329 12.4
2008-09-05 06:22:07 51°13.772 2°55.688 328.4 6.7 329 12.2
2008-09-05 06:22:12 51°13.78 2°55.68 329.5 6.9 330 12.3
2008-09-05 06:22:17 51°13.789 2°55.672 330.4 7.1 331 12.1
2008-09-05 06:22:22 51°13.798 2°55.665 331.5 7.4 332 12.1
2008-09-05 06:22:27 51°13.807 2°55.656 332.5 7.6 331 12.1
2008-09-05 06:22:32 51°13.816 2°55.649 333.3 7.7 334 12.1
2008-09-05 06:22:36 51°13.824 2°55.643 333.7 -999 202 12
2008-09-05 06:22:36 51°13.824 2°55.643 333.9 6.4 332 12.1
2008-09-05 06:22:47 51°13.846 2°55.625 334 6.5 334 12.1
2008-09-05 06:22:52 51°13.857 2°55.617 335 8.5 335 12.1
2008-09-05 06:22:57 51°13.867 2°55.61 335.7 8.3 336 12
2008-09-05 06:23:02 51°13.878 2°55.602 336.3 8.3 336 12
2008-09-05 06:23:05 51°13.884 2°55.598 336.1 4.8 336 12.1
2008-09-05 06:23:12 51°13.899 2°55.588 337.1 7.6 338 12.1
2008-09-05 06:23:17 51°13.91 2°55.58 337.6 8.6 336 12.2
2008-09-05 06:23:22 51°13.921 2°55.572 337 8.6 336 12.2
2008-09-05 06:23:27 51°13.932 2°55.565 336 8.6 337 12.2
2008-09-05 06:23:32 51°13.942 2°55.557 336.4 8.6 336 12.1
2008-09-05 06:23:37 51°13.953 2°55.549 336.5 8.6 336 12.2
2008-09-05 06:23:42 51°13.964 2°55.541 335.4 8.7 335 12.2
2008-09-05 06:23:47 51°13.975 2°55.533 335.1 8.7 337 12.2
2008-09-05 06:23:52 51°13.986 2°55.525 336.3 8.7 336 12.1
2008-09-05 06:23:57 51°13.997 2°55.518 336.7 8.7 336 12.2
2008-09-05 06:24:02 51°14.008 2°55.509 336 8.7 335 12.2
2008-09-05 06:24:07 51°14.019 2°55.501 335.2 8.7 334 12.2
2008-09-05 06:24:12 51°14.03 2°55.492 334 8.7 333 12.2
2008-09-05 06:24:17 51°14.041 2°55.484 333.5 8.6 333 12.2
2008-09-05 06:24:22 51°14.051 2°55.475 333.1 8.6 333 12.2
2008-09-05 06:24:27 51°14.062 2°55.466 333.1 8.7 333 12.2
2008-09-05 06:24:32 51°14.073 2°55.457 333.1 8.8 333 12.2
2008-09-05 06:24:37 51°14.084 2°55.448 332.9 8.8 333 12.3
2008-09-05 06:24:42 51°14.095 2°55.439 333.1 8.9 333 12.2
2008-09-05 06:24:47 51°14.106 2°55.43 333.7 8.9 333 12.2
2008-09-05 06:24:52 51°14.117 2°55.421 333.5 8.9 332 12.2
2008-09-05 06:24:57 51°14.128 2°55.412 333.1 9 332 12.2
2008-09-05 06:25:02 51°14.139 2°55.402 332.7 8.9 330 12.2
2008-09-05 06:25:07 51°14.15 2°55.392 331.6 9 330 12.2
2008-09-05 06:25:12 51°14.16 2°55.381 330.6 9 327 12.3
2008-09-05 06:25:17 51°14.17 2°55.37 328.8 9 326 12.3
2008-09-05 06:25:22 51°14.181 2°55.359 327 9 325 12
2008-09-05 06:25:27 51°14.191 2°55.347 325.8 9 324 12.3
2008-09-05 06:25:32 51°14.201 2°55.335 324.6 9 322 12.1
2008-09-05 06:25:37 51°14.21 2°55.322 323.2 9 320 11.9
2008-09-05 06:25:42 51°14.22 2°55.309 322 9.1 320 11.5
2008-09-05 06:25:47 51°14.229 2°55.295 320.7 9.1 318 11.5
2008-09-05 06:25:52 51°14.238 2°55.282 319.1 9.1 317 11.8
2008-09-05 06:25:57 51°14.247 2°55.267 317.5 9.1 315 12
2008-09-05 06:26:02 51°14.256 2°55.253 316 9.1 314 11.7
2008-09-05 06:26:07 51°14.265 2°55.238 314.9 9.2 314 11.8
2008-09-05 06:26:12 51°14.274 2°55.224 314.2 9.2 313 11.7
2008-09-05 06:26:17 51°14.282 2°55.209 313.7 9.2 313 11.4
2008-09-05 06:26:22 51°14.291 2°55.193 313.4 9.2 311 11.2
2008-09-05 06:26:27 51°14.299 2°55.178 312 9.2 311 11.1
2008-09-05 06:26:32 51°14.308 2°55.162 310.9 9.3 310 11.2
2008-09-05 06:26:37 51°14.316 2°55.146 310.5 9.2 310 11.3
2008-09-05 06:26:42 51°14.324 2°55.13 310.3 9.3 309 11.9
2008-09-05 06:26:47 51°14.332 2°55.114 309.5 9.3 308 11.7
2008-09-05 06:26:52 51°14.34 2°55.098 308.9 9.3 308 12.1
2008-09-05 06:26:57 51°14.348 2°55.082 308.7 9.3 307 12.3
2008-09-05 06:27:02 51°14.355 2°55.065 307.9 9.3 307 12.1
2008-09-05 06:27:07 51°14.363 2°55.048 307.5 9.4 306 12.2
2008-09-05 06:27:12 51°14.371 2°55.031 307 9.4 305 12.1
2008-09-05 06:27:17 51°14.378 2°55.014 306 9.4 304 12
2008-09-05 06:27:22 51°14.385 2°54.996 304.7 9.5 302 11.6
2008-09-05 06:27:27 51°14.392 2°54.978 303.3 9.6 301 11.3
2008-09-05 06:27:32 51°14.399 2°54.96 301.8 9.7 300 11.3
2008-09-05 06:27:37 51°14.405 2°54.941 300.3 9.8 300 11.4
2008-09-05 06:27:42 51°14.413 2°54.923 300.2 9.9 303 11.4
2008-09-05 06:27:47 51°14.421 2°54.905 302.8 9.9 306 11.6
2008-09-05 06:27:52 51°14.43 2°54.887 306.4 10 308 11.7
2008-09-05 06:27:57 51°14.439 2°54.87 309.1 10 310 11.6
2008-09-05 06:28:02 51°14.448 2°54.854 311.1 10.1 312 11.9
2008-09-05 06:28:07 51°14.458 2°54.838 313.4 10.1 315 11.9
2008-09-05 06:28:12 51°14.468 2°54.823 315.9 10.2 317 11.8
2008-09-05 06:28:17 51°14.478 2°54.808 317.8 10.1 317 11.9
2008-09-05 06:28:22 51°14.489 2°54.793 318.9 10.2 318 11.8
2008-09-05 06:28:27 51°14.5 2°54.778 320.2 10.2 320 11.6
2008-09-05 06:28:32 51°14.511 2°54.764 321.9 10.3 321 11.5
2008-09-05 06:28:37 51°14.522 2°54.749 322.4 10.3 321 11.3
2008-09-05 06:28:42 51°14.533 2°54.735 322.3 10.3 322 11.2
2008-09-05 06:28:47 51°14.545 2°54.721 323.3 10.3 323 11.1
2008-09-05 06:28:52 51°14.556 2°54.707 323.8 10.3 322 11
2008-09-05 06:28:57 51°14.567 2°54.694 323.9 10.4 323 11
2008-09-05 06:29:02 51°14.579 2°54.68 324.5 10.3 324 10.8
2008-09-05 06:29:07 51°14.591 2°54.668 325.4 10.3 326 11
2008-09-05 06:29:12 51°14.603 2°54.655 326.5 10.4 326 10.8
2008-09-05 06:29:17 51°14.615 2°54.642 327.8 10.4 327 10.7
2008-09-05 06:29:22 51°14.627 2°54.63 328.7 10.4 328 10.7
2008-09-05 06:29:27 51°14.64 2°54.619 329.7 10.4 329 10.7
2008-09-05 06:29:32 51°14.652 2°54.607 330.7 10.4 329 10.7
2008-09-05 06:29:37 51°14.664 2°54.595 331 10.4 329 10.7
2008-09-05 06:29:42 51°14.677 2°54.584 330.9 10.4 330 10.7
2008-09-05 06:29:47 51°14.689 2°54.572 330.6 10.4 329 10.8
2008-09-05 06:29:52 51°14.702 2°54.56 330.1 10.3 329 10.7
2008-09-05 06:29:57 51°14.714 2°54.549 329.8 10.3 329 10.7
2008-09-05 06:30:02 51°14.726 2°54.537 329.5 10.3 328 10.8
2008-09-05 06:30:07 51°14.738 2°54.524 329.3 10.4 328 10.6
2008-09-05 06:30:12 51°14.75 2°54.512 328.7 10.4 328 10.5
2008-09-05 06:30:17 51°14.763 2°54.501 328.7 10.4 329 10.7
2008-09-05 06:30:22 51°14.775 2°54.489 329.2 10.4 329 10.6
2008-09-05 06:30:27 51°14.787 2°54.477 329.5 10.4 330 10.6
2008-09-05 06:30:32 51°14.8 2°54.465 330 10.5 330 10.7
2008-09-05 06:30:37 51°14.813 2°54.453 330 10.6 330 10.6
2008-09-05 06:30:42 51°14.826 2°54.442 330.1 10.7 330 10.3
2008-09-05 06:30:47 51°14.838 2°54.43 330.7 10.7 331 10.6
2008-09-05 06:30:52 51°14.852 2°54.419 331.6 10.8 331 10.6
2008-09-05 06:30:57 51°14.865 2°54.407 331.6 10.9 330 10.4
2008-09-05 06:31:02 51°14.877 2°54.395 330.9 10.9 330 10.3
2008-09-05 06:31:07 51°14.89 2°54.382 330.3 10.9 329 10.1
2008-09-05 06:31:12 51°14.904 2°54.37 330 10.9 330 10.1
2008-09-05 06:31:17 51°14.917 2°54.358 330.1 11 329 10
2008-09-05 06:31:22 51°14.93 2°54.345 329.8 11 330 9.9
2008-09-05 06:31:27 51°14.943 2°54.333 330 11.1 331 9.7
2008-09-05 06:31:32 51°14.957 2°54.321 331 11.2 331 9.6
2008-09-05 06:31:37 51°14.97 2°54.309 331.5 11.2 331 9.5
2008-09-05 06:31:42 51°14.984 2°54.297 331.3 11.2 331 9.6
2008-09-05 06:31:47 51°14.997 2°54.285 330.9 11.2 331 9.6
2008-09-05 06:31:52 51°15.011 2°54.273 330.9 11.3 331 9.5
2008-09-05 06:31:57 51°15.025 2°54.261 331.5 11.3 331 9.3
2008-09-05 06:32:02 51°15.039 2°54.249 331.6 11.4 331 9.6
2008-09-05 06:32:07 51°15.053 2°54.237 331.3 11.4 331 9.5
2008-09-05 06:32:12 51°15.067 2°54.225 331.4 11.4 333 9.6
2008-09-05 06:32:17 51°15.08 2°54.213 332.1 11.4 331 9.6
2008-09-05 06:32:22 51°15.094 2°54.201 331.8 11.4 331 9.6
2008-09-05 06:32:27 51°15.108 2°54.188 331.1 11.5 331 9.6
2008-09-05 06:32:32 51°15.122 2°54.176 330.9 11.5 331 9.6
2008-09-05 06:32:37 51°15.136 2°54.164 331.2 11.6 332 9.7
2008-09-05 06:32:42 51°15.151 2°54.152 331.8 11.6 332 9.8
2008-09-05 06:32:47 51°15.165 2°54.14 332.4 11.6 332 9.7
2008-09-05 06:32:52 51°15.179 2°54.128 332.5 11.7 332 9.7
2008-09-05 06:32:57 51°15.194 2°54.116 332.4 11.7 332 9.8
2008-09-05 06:33:02 51°15.208 2°54.104 332.3 11.7 332 10.1
2008-09-05 06:33:07 51°15.222 2°54.091 332.7 11.7 331 10
2008-09-05 06:33:12 51°15.236 2°54.079 332.5 11.7 332 10.1
2008-09-05 06:33:17 51°15.251 2°54.066 332.3 11.7 331 10.2
2008-09-05 06:33:22 51°15.265 2°54.054 332.1 11.8 331 10.1
2008-09-05 06:33:27 51°15.279 2°54.041 332.3 11.8 331 10.1
2008-09-05 06:33:32 51°15.294 2°54.029 332.3 11.8 332 10
2008-09-05 06:33:37 51°15.308 2°54.016 332.5 11.7 331 10.2
2008-09-05 06:33:42 51°15.322 2°54.004 332.5 11.7 331 10.2
2008-09-05 06:33:47 51°15.336 2°53.991 332.3 11.8 331 10.4
2008-09-05 06:33:52 51°15.351 2°53.979 332.3 11.7 332 10.2
2008-09-05 06:33:57 51°15.365 2°53.966 332.7 11.7 331 10.2
2008-09-05 06:34:02 51°15.379 2°53.954 332.3 11.8 332 10.4
2008-09-05 06:34:07 51°15.394 2°53.941 332.3 11.8 331 10.5
2008-09-05 06:34:12 51°15.408 2°53.928 332.3 11.9 331 10.5
2008-09-05 06:34:17 51°15.423 2°53.915 332.2 12 330 10.5
2008-09-05 06:34:22 51°15.437 2°53.902 331.7 12 331 10.6
2008-09-05 06:34:27 51°15.452 2°53.889 331.9 12.1 331 10.8
2008-09-05 06:34:32 51°15.467 2°53.876 332.1 12.1 331 10.8
2008-09-05 06:34:37 51°15.482 2°53.863 332.3 12.2 331 10.7
2008-09-05 06:34:42 51°15.496 2°53.85 332.3 12.2 331 10.8
2008-09-05 06:34:47 51°15.511 2°53.837 332.2 12.2 330 10.9
2008-09-05 06:34:52 51°15.526 2°53.823 332 12.2 331 11
2008-09-05 06:34:57 51°15.54 2°53.81 331.8 12.2 331 10.8
2008-09-05 06:35:02 51°15.555 2°53.797 331.6 12.3 331 11
2008-09-05 06:35:07 51°15.57 2°53.784 331.8 12.2 331 11.1
2008-09-05 06:35:12 51°15.585 2°53.771 332 12.2 331 11.5
2008-09-05 06:35:17 51°15.6 2°53.758 332.1 12.2 331 11.5
2008-09-05 06:35:22 51°15.615 2°53.745 332.1 12.2 331 11.4
2008-09-05 06:35:27 51°15.63 2°53.732 332.3 12.2 332 11
2008-09-05 06:35:32 51°15.644 2°53.719 332.7 12.2 331 11.3
2008-09-05 06:35:37 51°15.659 2°53.706 332.6 12.2 331 11.3
2008-09-05 06:35:42 51°15.674 2°53.693 332.4 12.3 331 11.3
2008-09-05 06:35:47 51°15.689 2°53.68 332.3 12.3 331 11.4
2008-09-05 06:35:52 51°15.704 2°53.667 332.3 12.3 331 11.6
2008-09-05 06:35:57 51°15.719 2°53.654 332.5 12.3 331 11.6
2008-09-05 06:36:02 51°15.734 2°53.641 332.3 12.2 331 11.6
2008-09-05 06:36:07 51°15.748 2°53.627 332.2 12.3 330 11.5
2008-09-05 06:36:12 51°15.763 2°53.613 331.5 12.2 330 11.5
2008-09-05 06:36:17 51°15.778 2°53.6 331.2 12.3 330 11.7
2008-09-05 06:36:22 51°15.793 2°53.586 331.2 12.3 330 11.5
2008-09-05 06:36:27 51°15.808 2°53.573 331.4 12.3 331 11.6
2008-09-05 06:36:32 51°15.822 2°53.56 331.6 12.3 330 11.5
2008-09-05 06:36:37 51°15.837 2°53.546 331.6 12.3 330 11.6
2008-09-05 06:36:42 51°15.852 2°53.532 331.6 12.2 330 11.5
2008-09-05 06:36:47 51°15.867 2°53.518 331.1 12.3 329 11.6
2008-09-05 06:36:52 51°15.881 2°53.505 330.1 12.2 329 11.8
2008-09-05 06:36:57 51°15.895 2°53.49 329.7 12.2 328 11.8
2008-09-05 06:37:02 51°15.91 2°53.476 328.9 12.3 328 11.8
2008-09-05 06:37:07 51°15.924 2°53.461 328.7 12.3 327 11.9
2008-09-05 06:37:12 51°15.939 2°53.447 328.4 12.3 328 12
2008-09-05 06:37:17 51°15.953 2°53.432 328.4 12.3 328 11.9
2008-09-05 06:37:22 51°15.968 2°53.418 328.6 12.3 329 12
2008-09-05 06:37:27 51°15.983 2°53.405 328.9 12.3 332 12
2008-09-05 06:37:32 51°15.998 2°53.393 331 12.3 332 12
2008-09-05 06:37:37 51°16.013 2°53.38 332.6 12.3 333 12
2008-09-05 06:37:42 51°16.028 2°53.369 333.6 12.2 334 12
2008-09-05 06:37:47 51°16.044 2°53.357 334.9 12.3 334 12.1
2008-09-05 06:37:52 51°16.059 2°53.345 335.3 12.3 335 12.1
2008-09-05 06:37:57 51°16.075 2°53.334 335.8 12.3 336 12.2
2008-09-05 06:38:02 51°16.09 2°53.323 336 12.3 336 12.1
2008-09-05 06:38:07 51°16.105 2°53.311 335.9 12.3 334 12.2
2008-09-05 06:38:12 51°16.121 2°53.299 335.1 12.3 335 12.2
2008-09-05 06:38:17 51°16.136 2°53.287 334.8 12.2 334 12.2
2008-09-05 06:38:22 51°16.151 2°53.275 334.4 12.2 334 12.3
2008-09-05 06:38:27 51°16.166 2°53.263 334 12.2 333 12.3
2008-09-05 06:38:32 51°16.181 2°53.251 333.6 12.2 333 12.3
2008-09-05 06:38:37 51°16.197 2°53.238 333.5 12.3 333 12.2
2008-09-05 06:38:42 51°16.212 2°53.226 333.6 12.3 333 12.2
2008-09-05 06:38:47 51°16.227 2°53.214 333.6 12.2 333 12.3
2008-09-05 06:38:52 51°16.242 2°53.202 333.8 12.3 333 12.4
2008-09-05 06:38:57 51°16.257 2°53.19 333.6 12.3 333 12.4
2008-09-05 06:39:02 51°16.272 2°53.177 333.4 12.2 333 12.3
2008-09-05 06:39:07 51°16.287 2°53.165 333.6 12.2 333 12.3
2008-09-05 06:39:12 51°16.303 2°53.153 333.8 12.2 333 12.4
2008-09-05 06:39:17 51°16.318 2°53.141 333.8 12.2 333 12.3
2008-09-05 06:39:22 51°16.333 2°53.129 333.8 12.3 334 12.4
2008-09-05 06:39:27 51°16.349 2°53.117 333.9 12.3 333 12.3
2008-09-05 06:39:32 51°16.364 2°53.105 333.8 12.3 334 12.4
2008-09-05 06:39:37 51°16.379 2°53.093 333.8 12.3 335 12.4
2008-09-05 06:39:42 51°16.395 2°53.081 335 12.3 335 12.4
2008-09-05 06:39:47 51°16.41 2°53.07 335.4 12.3 336 12.4
2008-09-05 06:39:52 51°16.426 2°53.059 336.2 12.3 336 12.4
2008-09-05 06:39:57 51°16.442 2°53.048 336.6 12.4 336 12.4
2008-09-05 06:40:02 51°16.458 2°53.038 336.7 12.4 337 12.3
2008-09-05 06:40:07 51°16.473 2°53.027 337.3 12.4 337 12.2
2008-09-05 06:40:12 51°16.489 2°53.016 337.7 12.4 337 12.3
2008-09-05 06:40:17 51°16.505 2°53.006 337.4 12.4 337 12.2
2008-09-05 06:40:22 51°16.52 2°52.995 337.4 12.3 336 12.2
2008-09-05 06:40:27 51°16.536 2°52.984 337 12.3 336 12.3
2008-09-05 06:40:32 51°16.551 2°52.972 336.2 12.3 335 12.2
2008-09-05 06:40:37 51°16.567 2°52.961 335.7 12.3 335 12.3
2008-09-05 06:40:42 51°16.582 2°52.95 335.7 12.3 336 12.3
2008-09-05 06:40:47 51°16.598 2°52.938 336 12.3 336 12.2
2008-09-05 06:40:52 51°16.613 2°52.928 336 12.3 337 11.9
2008-09-05 06:40:57 51°16.629 2°52.917 336.8 12.3 337 12
2008-09-05 06:41:02 51°16.645 2°52.907 337.2 12.3 337 11.9
2008-09-05 06:41:07 51°16.66 2°52.896 337.4 12.2 336 11.8
2008-09-05 06:41:12 51°16.676 2°52.884 337 12.3 335 11.8
2008-09-05 06:41:17 51°16.691 2°52.872 336 12.3 334 11.6
2008-09-05 06:41:22 51°16.706 2°52.86 334.5 12.3 333 11.7
2008-09-05 06:41:27 51°16.722 2°52.847 333.2 12.3 333 11.5
2008-09-05 06:41:32 51°16.737 2°52.835 333 12.2 333 11
2008-09-05 06:41:37 51°16.752 2°52.823 333.1 12.3 333 11
2008-09-05 06:41:42 51°16.767 2°52.811 333.5 12.3 334 10.7
2008-09-05 06:41:47 51°16.782 2°52.799 333.8 12.3 334 10.4
2008-09-05 06:41:52 51°16.798 2°52.787 334.1 12.3 334 10
2008-09-05 06:41:57 51°16.813 2°52.775 334.5 12.3 334 10.2
2008-09-05 06:42:02 51°16.828 2°52.763 334.7 12.3 334 10.2
2008-09-05 06:42:07 51°16.844 2°52.752 334.5 12.3 334 9.9
2008-09-05 06:42:12 51°16.859 2°52.74 334.7 12.3 334 10
2008-09-05 06:42:17 51°16.874 2°52.728 334.7 12.3 334 9.9
2008-09-05 06:42:22 51°16.89 2°52.716 334.5 12.3 334 9.9
2008-09-05 06:42:27 51°16.905 2°52.704 334.4 12.3 334 10.1
2008-09-05 06:42:32 51°16.92 2°52.692 334.3 12.4 334 10
2008-09-05 06:42:37 51°16.936 2°52.68 334.5 12.4 334 10.2
2008-09-05 06:42:42 51°16.952 2°52.668 334.4 12.4 334 10.1
2008-09-05 06:42:47 51°16.967 2°52.657 334.4 12.4 334 10.4
2008-09-05 06:42:52 51°16.983 2°52.644 334.3 12.4 334 10.5
2008-09-05 06:42:57 51°16.998 2°52.633 334.4 12.4 334 10.4
2008-09-05 06:43:02 51°17.013 2°52.62 334.3 12.4 333 10.6
2008-09-05 06:43:07 51°17.029 2°52.608 334 12.4 333 10.4
2008-09-05 06:43:12 51°17.044 2°52.596 333.9 12.4 333 10.4
2008-09-05 06:43:17 51°17.059 2°52.584 333.8 12.3 333 10.1
2008-09-05 06:43:22 51°17.075 2°52.572 333.7 12.4 334 10.1
2008-09-05 06:43:27 51°17.09 2°52.56 334.1 12.3 334 10.1
2008-09-05 06:43:32 51°17.106 2°52.548 334.5 12.3 334 10
2008-09-05 06:43:37 51°17.121 2°52.536 334.5 12.3 334 10.4
2008-09-05 06:43:42 51°17.136 2°52.524 333.9 12.3 334 10.3
2008-09-05 06:43:47 51°17.152 2°52.512 333.8 12.4 333 10.2
2008-09-05 06:43:52 51°17.167 2°52.499 333.8 12.4 333 10.4
2008-09-05 06:43:57 51°17.182 2°52.487 333.8 12.4 333 10.5
2008-09-05 06:44:02 51°17.197 2°52.475 333.9 12.3 334 10.3
2008-09-05 06:44:07 51°17.213 2°52.463 334.3 12.4 333 10.5
2008-09-05 06:44:12 51°17.228 2°52.451 334.2 12.4 334 10.5
2008-09-05 06:44:17 51°17.243 2°52.438 334.2 12.4 332 10.7
2008-09-05 06:44:22 51°17.259 2°52.426 333.9 12.3 333 10.6
2008-09-05 06:44:27 51°17.273 2°52.411 333.8 12.3 325 10.7
2008-09-05 06:44:32 51°17.287 2°52.395 329.4 12.3 325 10.8
2008-09-05 06:44:37 51°17.3 2°52.379 326.3 12.3 323 10.7
2008-09-05 06:44:42 51°17.314 2°52.362 323.4 12.2 321 10.9
2008-09-05 06:44:47 51°17.327 2°52.344 321.6 12.3 319 10.8
2008-09-05 06:44:52 51°17.339 2°52.326 320 12.3 319 10.8
2008-09-05 06:44:57 51°17.352 2°52.308 318.7 12.3 318 10.9
2008-09-05 06:45:02 51°17.365 2°52.29 317.8 12.4 317 11
2008-09-05 06:45:07 51°17.377 2°52.271 317 12.4 316 11
2008-09-05 06:45:12 51°17.39 2°52.252 316.4 12.4 316 10.9
2008-09-05 06:45:17 51°17.402 2°52.233 316.3 12.4 316 10.8
2008-09-05 06:45:22 51°17.414 2°52.213 315.7 12.4 316 10.9
2008-09-05 06:45:27 51°17.426 2°52.194 315.7 12.4 316 10.8
2008-09-05 06:45:32 51°17.439 2°52.175 315.8 12.4 317 11.1
2008-09-05 06:45:37 51°17.451 2°52.156 315.9 12.4 316 11
2008-09-05 06:45:42 51°17.464 2°52.137 316.4 12.4 316 10.8
2008-09-05 06:45:47 51°17.476 2°52.118 316.1 12.3 315 11
2008-09-05 06:45:52 51°17.488 2°52.098 315.8 12.3 315 10.9
2008-09-05 06:45:57 51°17.498 2°52.077 314.2 12.2 309 11.1
2008-09-05 06:46:02 51°17.509 2°52.056 310.5 12.2 309 10.7
2008-09-05 06:46:07 51°17.519 2°52.034 308.3 12.2 305 10.8
2008-09-05 06:46:12 51°17.529 2°52.012 306 12.2 305 10.8
2008-09-05 06:46:17 51°17.538 2°51.989 304.7 12.2 303 11.2
2008-09-05 06:46:22 51°17.547 2°51.966 303.6 12.2 303 10.9
2008-09-05 06:46:27 51°17.556 2°51.944 302.8 12.3 302 10.7
2008-09-05 06:46:32 51°17.565 2°51.92 301.9 12.3 302 10.8
2008-09-05 06:46:37 51°17.574 2°51.897 301.3 12.4 302 10.9
2008-09-05 06:46:42 51°17.583 2°51.874 301.1 12.3 301 10.8
2008-09-05 06:46:47 51°17.592 2°51.851 300.4 12.3 302 11
2008-09-05 06:46:52 51°17.601 2°51.827 300.7 12.3 302 10.6
2008-09-05 06:46:57 51°17.61 2°51.804 301 12.3 301 10.8
2008-09-05 06:47:02 51°17.619 2°51.781 300.4 12.3 301 10.7
2008-09-05 06:47:07 51°17.628 2°51.758 300 12.3 300 10.8
2008-09-05 06:47:12 51°17.637 2°51.734 299.8 12.3 301 10.6
2008-09-05 06:47:17 51°17.646 2°51.711 299.7 12.3 301 10.4
2008-09-05 06:47:22 51°17.654 2°51.687 300.4 12.3 303 10.3
2008-09-05 06:47:27 51°17.663 2°51.664 301.2 12.3 302 10.6
2008-09-05 06:47:32 51°17.673 2°51.641 301.7 12.3 304 10.2
2008-09-05 06:47:37 51°17.682 2°51.618 302.3 12.4 302 10.3
2008-09-05 06:47:42 51°17.691 2°51.595 302.1 12.3 302 10.3
2008-09-05 06:47:47 51°17.7 2°51.572 302 12.3 303 10.1
2008-09-05 06:47:52 51°17.709 2°51.549 302.1 12.4 299 10.1
2008-09-05 06:47:57 51°17.717 2°51.524 299.7 12.3 298 10.2
2008-09-05 06:48:02 51°17.725 2°51.501 297.9 12.3 298 10.6
2008-09-05 06:48:07 51°17.733 2°51.476 297.1 12.4 298 10.3
2008-09-05 06:48:12 51°17.741 2°51.452 296.8 12.3 297 10.4
2008-09-05 06:48:17 51°17.748 2°51.428 296.6 12.3 297 10.2
2008-09-05 06:48:22 51°17.756 2°51.404 296 12.4 296 10.3
2008-09-05 06:48:27 51°17.764 2°51.379 295.5 12.3 296 10.4
2008-09-05 06:48:32 51°17.772 2°51.355 295.2 12.2 297 10.7
2008-09-05 06:48:37 51°17.779 2°51.33 295.5 12.3 296 10.8
2008-09-05 06:48:42 51°17.786 2°51.305 295.5 12.4 295 10.6
2008-09-05 06:48:47 51°17.793 2°51.281 294.6 12.3 295 10.8
2008-09-05 06:48:52 51°17.801 2°51.256 293.9 12.3 295 10.6
2008-09-05 06:48:57 51°17.808 2°51.231 293.7 12.3 294 10.6
2008-09-05 06:49:02 51°17.815 2°51.207 293.1 12.3 296 11
2008-09-05 06:49:07 51°17.822 2°51.182 293.4 12.3 295 10.7
2008-09-05 06:49:12 51°17.83 2°51.158 293.5 12.3 297 10.8
2008-09-05 06:49:17 51°17.837 2°51.132 294.6 12.4 296 11.1
2008-09-05 06:49:22 51°17.845 2°51.108 295.2 12.3 298 11.5
2008-09-05 06:49:27 51°17.853 2°51.084 296.3 12.3 297 11.1
2008-09-05 06:49:32 51°17.861 2°51.06 296.2 12.3 299 11.4
2008-09-05 06:49:37 51°17.869 2°51.036 296.8 12.3 298 11.5
2008-09-05 06:49:42 51°17.877 2°51.012 297.2 12.3 299 11.7
2008-09-05 06:49:47 51°17.886 2°50.988 297.5 12.3 299 12
2008-09-05 06:49:52 51°17.894 2°50.964 297.6 12.3 299 12.1
2008-09-05 06:49:57 51°17.902 2°50.941 297.6 12.3 299 12.1
2008-09-05 06:50:02 51°17.91 2°50.917 298.1 12.4 300 12.3
2008-09-05 06:50:07 51°17.919 2°50.892 298.4 12.4 299 12.2
2008-09-05 06:50:12 51°17.927 2°50.869 298.2 12.4 299 12.5
2008-09-05 06:50:17 51°17.936 2°50.845 297.8 12.5 299 12.5
2008-09-05 06:50:22 51°17.945 2°50.821 298.1 12.4 301 12.8
2008-09-05 06:50:27 51°17.953 2°50.797 299.3 12.4 300 12.6
2008-09-05 06:50:32 51°17.962 2°50.774 299.6 12.4 302 12.5
2008-09-05 06:50:37 51°17.971 2°50.751 300.4 12.4 302 12.7
2008-09-05 06:50:42 51°17.98 2°50.727 300.7 12.4 302 13
2008-09-05 06:50:47 51°17.989 2°50.704 301.1 12.4 302 12.9
2008-09-05 06:50:52 51°17.999 2°50.681 301.3 12.4 302 13.1
2008-09-05 06:50:57 51°18.008 2°50.658 301.3 12.4 302 13.2
2008-09-05 06:51:02 51°18.017 2°50.635 301.6 12.4 303 13
2008-09-05 06:51:07 51°18.027 2°50.612 301.8 12.4 303 13.1
2008-09-05 06:51:12 51°18.036 2°50.589 301.9 12.4 303 13.2
2008-09-05 06:51:17 51°18.045 2°50.566 302.2 12.4 302 13.3
2008-09-05 06:51:22 51°18.054 2°50.543 301.9 12.4 302 13.4
2008-09-05 06:51:27 51°18.064 2°50.52 301.4 12.4 302 13.6
2008-09-05 06:51:32 51°18.073 2°50.496 301.5 12.4 302 13.5
2008-09-05 06:51:37 51°18.081 2°50.472 301.5 12.4 301 13.4
2008-09-05 06:51:42 51°18.09 2°50.448 299.8 12.4 300 13.6
2008-09-05 06:51:47 51°18.098 2°50.424 299.2 12.4 299 13.6
2008-09-05 06:51:52 51°18.106 2°50.4 298.8 12.4 298 13.7
2008-09-05 06:51:57 51°18.115 2°50.376 298.2 12.4 300 13.8
2008-09-05 06:52:02 51°18.123 2°50.352 298.2 12.4 299 13.9
2008-09-05 06:52:07 51°18.132 2°50.328 298.2 12.4 300 14
2008-09-05 06:52:12 51°18.14 2°50.304 298.2 12.4 299 14.1
2008-09-05 06:52:17 51°18.148 2°50.28 298 12.4 299 14.1
2008-09-05 06:52:22 51°18.157 2°50.256 297.9 12.4 299 14.3
2008-09-05 06:52:27 51°18.165 2°50.232 298.2 12.4 300 14.2
2008-09-05 06:52:32 51°18.173 2°50.208 298.3 12.4 299 14.4
2008-09-05 06:52:37 51°18.182 2°50.184 298.3 12.4 299 14.3
2008-09-05 06:52:42 51°18.19 2°50.161 298.1 12.4 299 14.3
2008-09-05 06:52:47 51°18.198 2°50.137 298.2 12.4 299 14.3
2008-09-05 06:52:52 51°18.207 2°50.113 298.4 12.4 300 14.4
2008-09-05 06:52:57 51°18.216 2°50.089 299 12.4 300 14.3
2008-09-05 06:53:02 51°18.224 2°50.065 299 12.4 300 14.2
2008-09-05 06:53:07 51°18.233 2°50.041 299.3 12.4 300 14.4
2008-09-05 06:53:12 51°18.242 2°50.018 299.3 12.4 301 14.4
2008-09-05 06:53:17 51°18.25 2°49.994 299.2 12.4 301 14.3
2008-09-05 06:53:22 51°18.259 2°49.97 299.9 12.4 301 14.3
2008-09-05 06:53:27 51°18.268 2°49.947 300.6 12.4 300 14.2
2008-09-05 06:53:32 51°18.276 2°49.923 300.4 12.3 296 14.2
2008-09-05 06:53:37 51°18.284 2°49.899 297.2 12.3 297 14.3
2008-09-05 06:53:42 51°18.29 2°49.873 295.8 12.3 294 14.1
2008-09-05 06:53:47 51°18.297 2°49.848 294.1 12.4 295 14.2
2008-09-05 06:53:52 51°18.304 2°49.823 293.3 12.4 293 14.1
2008-09-05 06:53:57 51°18.311 2°49.798 292.5 12.4 293 14
2008-09-05 06:54:02 51°18.317 2°49.773 291.9 12.3 292 14
2008-09-05 06:54:07 51°18.324 2°49.748 291.6 12.4 292 13.8
2008-09-05 06:54:12 51°18.33 2°49.722 291 12.4 292 13.6
2008-09-05 06:54:17 51°18.337 2°49.697 290.6 12.4 292 13.6
2008-09-05 06:54:22 51°18.343 2°49.671 290.4 12.4 292 13.4
2008-09-05 06:54:27 51°18.349 2°49.645 290.6 12.4 292 13.3
2008-09-05 06:54:32 51°18.356 2°49.62 291 12.4 292 13.2
2008-09-05 06:54:37 51°18.362 2°49.594 290.9 12.4 292 13.2
2008-09-05 06:54:42 51°18.369 2°49.569 290.9 12.4 292 13.1
2008-09-05 06:54:47 51°18.375 2°49.544 290.9 12.4 293 12.8
2008-09-05 06:54:52 51°18.382 2°49.518 290.9 12.4 291 12.7
2008-09-05 06:54:57 51°18.388 2°49.493 290.6 12.4 292 12.4
2008-09-05 06:55:02 51°18.394 2°49.467 290.6 12.3 291 11.9
2008-09-05 06:55:07 51°18.4 2°49.442 290.3 12.3 291 11.2
2008-09-05 06:55:12 51°18.406 2°49.416 290.2 12.3 291 11.6
2008-09-05 06:55:17 51°18.413 2°49.391 290.1 12.4 291 11.6
2008-09-05 06:55:22 51°18.419 2°49.365 289.9 12.4 291 11.8
2008-09-05 06:55:27 51°18.425 2°49.34 290 12.4 292 11.6
2008-09-05 06:55:32 51°18.432 2°49.314 290.4 12.4 292 11.3
2008-09-05 06:55:37 51°18.438 2°49.289 290.7 12.4 292 11.2
2008-09-05 06:55:42 51°18.444 2°49.263 291 12.3 291 11.1
2008-09-05 06:55:47 51°18.451 2°49.238 290.6 12.4 292 10.8
2008-09-05 06:55:52 51°18.457 2°49.212 290.5 12.4 291 10.9
2008-09-05 06:55:57 51°18.463 2°49.187 290.6 12.4 291 10.8
2008-09-05 06:56:02 51°18.469 2°49.161 290.2 12.3 292 10.7
2008-09-05 06:56:07 51°18.476 2°49.136 290.3 12.4 292 10.6
2008-09-05 06:56:12 51°18.482 2°49.11 290.6 12.4 291 10.8
2008-09-05 06:56:17 51°18.488 2°49.085 291 12.4 292 11.1
2008-09-05 06:56:22 51°18.495 2°49.059 290.9 12.4 291 11.2
2008-09-05 06:56:27 51°18.501 2°49.033 290.2 12.4 291 11.1
2008-09-05 06:56:32 51°18.507 2°49.008 289.8 12.4 290 11.1
2008-09-05 06:56:37 51°18.512 2°48.982 289.5 12.4 289 11.2
2008-09-05 06:56:42 51°18.518 2°48.956 288.8 12.4 290 10.9
2008-09-05 06:56:47 51°18.524 2°48.93 288.8 12.4 289 10.9
2008-09-05 06:56:52 51°18.529 2°48.904 288.5 12.4 289 10.6
2008-09-05 06:56:57 51°18.535 2°48.878 288 12.4 288 10.4
2008-09-05 06:57:02 51°18.54 2°48.852 287.3 12.4 288 10.3
2008-09-05 06:57:07 51°18.545 2°48.825 286.7 12.4 286 10.8
2008-09-05 06:57:12 51°18.549 2°48.799 285.5 12.4 286 11
2008-09-05 06:57:17 51°18.554 2°48.773 284.7 12.5 287 11.3
2008-09-05 06:57:22 51°18.559 2°48.746 285.2 12.4 287 11.4
2008-09-05 06:57:27 51°18.564 2°48.72 285.9 12.5 288 11.5
2008-09-05 06:57:32 51°18.57 2°48.694 286.4 12.4 287 11.4
2008-09-05 06:57:37 51°18.575 2°48.668 286.6 12.5 287 11.2
2008-09-05 06:57:42 51°18.58 2°48.641 286.1 12.4 287 11.1
2008-09-05 06:57:47 51°18.585 2°48.615 286.1 12.4 287 11.1
2008-09-05 06:57:52 51°18.589 2°48.588 286 12.4 287 11.3
2008-09-05 06:57:57 51°18.595 2°48.562 286.2 12.4 287 11.5
2008-09-05 06:58:02 51°18.6 2°48.536 286.1 12.4 287 11.6
2008-09-05 06:58:07 51°18.604 2°48.509 285.9 12.5 285 12
2008-09-05 06:58:12 51°18.609 2°48.483 285.2 12.5 287 12.4
2008-09-05 06:58:17 51°18.614 2°48.456 285.1 12.4 285 12.7
2008-09-05 06:58:22 51°18.618 2°48.429 284.2 12.5 285 12.7
2008-09-05 06:58:27 51°18.622 2°48.403 283.9 12.5 285 12.6
2008-09-05 06:58:32 51°18.627 2°48.376 283.5 12.4 284 12.5
2008-09-05 06:58:37 51°18.631 2°48.35 283 12.4 285 12.7
2008-09-05 06:58:42 51°18.635 2°48.323 283.2 12.5 284 13
2008-09-05 06:58:47 51°18.64 2°48.296 283.3 12.5 286 13.3
2008-09-05 06:58:52 51°18.644 2°48.27 283.6 12.4 285 13.5
2008-09-05 06:58:57 51°18.649 2°48.243 283.7 12.5 285 13.8
2008-09-05 06:59:02 51°18.653 2°48.216 283.6 12.5 286 13.9
2008-09-05 06:59:07 51°18.658 2°48.19 284.2 12.4 285 14.1
2008-09-05 06:59:12 51°18.662 2°48.163 284.1 12.4 285 14.1
2008-09-05 06:59:17 51°18.667 2°48.137 284.3 12.4 285 14.2
2008-09-05 06:59:22 51°18.671 2°48.11 283.9 12.4 285 14.3
2008-09-05 06:59:27 51°18.676 2°48.084 283.9 12.4 286 14.4
2008-09-05 06:59:32 51°18.68 2°48.057 284.1 12.4 286 14.5
2008-09-05 06:59:37 51°18.685 2°48.031 284.5 12.4 285 14.6
2008-09-05 06:59:42 51°18.689 2°48.005 284.4 12.4 285 14.6
2008-09-05 06:59:47 51°18.694 2°47.979 284.4 12.4 286 14.8
2008-09-05 06:59:52 51°18.699 2°47.952 284.4 12.3 286 14.9
2008-09-05 06:59:57 51°18.704 2°47.926 284.9 12.4 287 15.1
2008-09-05 07:00:02 51°18.708 2°47.9 285 12.4 285 15.3
2008-09-05 07:00:07 51°18.713 2°47.873 285.1 12.4 287 15.4
2008-09-05 07:00:12 51°18.718 2°47.847 285.3 12.4 288 15.5
2008-09-05 07:00:17 51°18.723 2°47.821 286 12.4 287 15.7
2008-09-05 07:00:22 51°18.729 2°47.795 286.4 12.5 289 16
2008-09-05 07:00:27 51°18.734 2°47.769 287.2 12.4 288 15.9
2008-09-05 07:00:32 51°18.74 2°47.743 287.5 12.4 290 16.1
2008-09-05 07:00:37 51°18.745 2°47.716 288 12.5 289 16.3
2008-09-05 07:00:42 51°18.751 2°47.69 288 12.5 289 16.5
2008-09-05 07:00:47 51°18.757 2°47.664 288.1 12.4 289 16.6
2008-09-05 07:00:52 51°18.762 2°47.638 288 12.4 289 16.8
2008-09-05 07:00:57 51°18.767 2°47.612 287.9 12.4 288 16.9
2008-09-05 07:01:02 51°18.773 2°47.586 287.6 12.5 289 17
2008-09-05 07:01:07 51°18.778 2°47.559 287.5 12.4 288 17.3
2008-09-05 07:01:12 51°18.783 2°47.533 287.3 12.4 287 17.4
2008-09-05 07:01:17 51°18.788 2°47.506 286.7 12.5 287 17.6
2008-09-05 07:01:22 51°18.793 2°47.48 286.1 12.4 286 17.8
2008-09-05 07:01:27 51°18.798 2°47.454 285.7 12.4 287 17.9
2008-09-05 07:01:32 51°18.803 2°47.427 285.7 12.4 287 18
2008-09-05 07:01:37 51°18.808 2°47.401 286.2 12.4 288 18.2
2008-09-05 07:01:42 51°18.814 2°47.375 286.8 12.4 288 18.3
2008-09-05 07:01:47 51°18.819 2°47.349 287.2 12.4 288 18.6
2008-09-05 07:01:52 51°18.825 2°47.323 287.5 12.4 289 18.7
2008-09-05 07:01:57 51°18.83 2°47.297 287.9 12.4 288 18.8
2008-09-05 07:02:02 51°18.836 2°47.271 287.9 12.4 289 19
2008-09-05 07:02:07 51°18.841 2°47.245 288 12.4 288 19.2
2008-09-05 07:02:12 51°18.847 2°47.219 287.9 12.4 289 19.3
2008-09-05 07:02:17 51°18.852 2°47.193 287.7 12.4 288 19.4
2008-09-05 07:02:22 51°18.858 2°47.167 287.4 12.3 289 19.4
2008-09-05 07:02:27 51°18.862 2°47.141 287.3 12.3 287 19.5
2008-09-05 07:02:32 51°18.868 2°47.115 286.6 12.3 288 19.6
2008-09-05 07:02:37 51°18.873 2°47.089 286.4 12.3 288 19.7
2008-09-05 07:02:42 51°18.878 2°47.063 286.6 12.3 289 19.8
2008-09-05 07:02:47 51°18.884 2°47.037 287.1 12.4 288 19.9
2008-09-05 07:02:52 51°18.889 2°47.01 287.4 12.4 288 19.9
2008-09-05 07:02:57 51°18.894 2°46.985 287.4 12.4 289 20
2008-09-05 07:03:02 51°18.899 2°46.958 287.5 12.3 288 20.1
2008-09-05 07:03:07 51°18.904 2°46.932 287.3 12.4 287 20.3
2008-09-05 07:03:12 51°18.909 2°46.906 287.1 12.4 287 20.4
2008-09-05 07:03:17 51°18.915 2°46.88 286.7 12.4 288 20.4
2008-09-05 07:03:22 51°18.92 2°46.854 286.7 12.4 287 20.6
2008-09-05 07:03:27 51°18.925 2°46.828 286.5 12.4 287 20.8
2008-09-05 07:03:32 51°18.93 2°46.802 286.2 12.3 288 20.7
2008-09-05 07:03:37 51°18.935 2°46.775 286.6 12.4 287 20.7
2008-09-05 07:03:42 51°18.94 2°46.749 286.8 12.4 288 20.9
2008-09-05 07:03:47 51°18.945 2°46.723 287.1 12.4 286 21.1
2008-09-05 07:03:52 51°18.95 2°46.697 286.2 12.3 286 21
2008-09-05 07:03:57 51°18.954 2°46.671 285 12.3 285 21
2008-09-05 07:04:02 51°18.959 2°46.644 284.8 12.4 286 21
2008-09-05 07:04:07 51°18.964 2°46.618 284.7 12.3 285 21
2008-09-05 07:04:12 51°18.968 2°46.591 284.5 12.3 285 21.1
2008-09-05 07:04:17 51°18.973 2°46.565 284.4 12.3 285 21.1
2008-09-05 07:04:22 51°18.977 2°46.539 284.7 12.4 285 21.1
2008-09-05 07:04:27 51°18.982 2°46.512 284.4 12.4 286 21
2008-09-05 07:04:32 51°18.986 2°46.486 284.6 12.4 284 21
2008-09-05 07:04:37 51°18.991 2°46.459 284.4 12.4 286 21.2
2008-09-05 07:04:42 51°18.995 2°46.433 284.7 12.4 285 21.2
2008-09-05 07:04:47 51°19 2°46.406 284.5 12.4 286 21.4
2008-09-05 07:04:52 51°19.005 2°46.38 284.5 12.4 285 21.2
2008-09-05 07:04:57 51°19.009 2°46.353 284.5 12.4 286 21.3
2008-09-05 07:05:02 51°19.013 2°46.327 284.5 12.4 284 21.1
2008-09-05 07:05:07 51°19.018 2°46.3 283.9 12.4 285 21.2
2008-09-05 07:05:12 51°19.023 2°46.273 283.6 12.5 286 21.4
2008-09-05 07:05:17 51°19.027 2°46.247 284 12.5 285 21.3
2008-09-05 07:05:22 51°19.031 2°46.22 284.2 12.4 285 21.3
2008-09-05 07:05:27 51°19.036 2°46.194 284.4 12.4 286 21.2
2008-09-05 07:05:32 51°19.041 2°46.168 284.6 12.4 286 21.1
2008-09-05 07:05:37 51°19.045 2°46.142 284.6 12.3 285 20.7
2008-09-05 07:05:42 51°19.049 2°46.115 284.6 12.3 284 20.8
2008-09-05 07:05:47 51°19.054 2°46.089 284.3 12.3 284 20.5
2008-09-05 07:05:52 51°19.058 2°46.062 283.7 12.3 283 20.5
2008-09-05 07:05:57 51°19.062 2°46.036 282.8 12.3 284 20.4
2008-09-05 07:06:02 51°19.065 2°46.009 282.6 12.3 283 20.4
2008-09-05 07:06:07 51°19.07 2°45.983 282.7 12.3 286 20.2
2008-09-05 07:06:12 51°19.074 2°45.957 283.6 12.3 285 20.1
2008-09-05 07:06:17 51°19.079 2°45.93 283.8 12.3 285 20
2008-09-05 07:06:22 51°19.083 2°45.904 283.6 12.3 284 19.4
2008-09-05 07:06:27 51°19.088 2°45.878 283.6 12.3 286 19
2008-09-05 07:06:32 51°19.092 2°45.851 284.2 12.3 285 19.3
2008-09-05 07:06:37 51°19.097 2°45.825 284.4 12.3 286 19.1
2008-09-05 07:06:42 51°19.101 2°45.799 284.9 12.3 286 18.7
2008-09-05 07:06:47 51°19.106 2°45.773 284.9 12.4 286 18.1
2008-09-05 07:06:52 51°19.111 2°45.746 284.7 12.4 286 18.6
2008-09-05 07:06:57 51°19.115 2°45.72 284.9 12.3 286 18.4
2008-09-05 07:07:02 51°19.12 2°45.693 284.5 12.4 286 18
2008-09-05 07:07:07 51°19.124 2°45.668 284.6 12.3 286 17
2008-09-05 07:07:12 51°19.129 2°45.641 284.5 12.3 284 17.2
2008-09-05 07:07:17 51°19.134 2°45.615 284.6 12.3 287 17.5
2008-09-05 07:07:22 51°19.138 2°45.588 285.2 12.4 285 16.4
2008-09-05 07:07:27 51°19.143 2°45.562 284.9 12.4 286 15.9
2008-09-05 07:07:32 51°19.147 2°45.536 284.8 12.4 284 15.7
2008-09-05 07:07:37 51°19.152 2°45.509 284.3 12.3 284 16.4
2008-09-05 07:07:42 51°19.156 2°45.483 283.5 12.4 283 15.8
2008-09-05 07:07:47 51°19.16 2°45.456 283.4 12.4 286 15.4
2008-09-05 07:07:52 51°19.164 2°45.429 283.5 12.4 284 14.7
2008-09-05 07:07:57 51°19.169 2°45.403 283.7 12.4 285 14.6
2008-09-05 07:08:02 51°19.173 2°45.376 284 12.4 285 13.7
2008-09-05 07:08:07 51°19.178 2°45.35 284.2 12.5 285 14.2
2008-09-05 07:08:12 51°19.182 2°45.323 284.4 12.5 284 13.4
2008-09-05 07:08:17 51°19.187 2°45.296 284.1 12.4 286 11.3
2008-09-05 07:08:22 51°19.191 2°45.27 284.6 12.4 285 13.3
2008-09-05 07:08:27 51°19.196 2°45.243 284.6 12.4 286 11.8
2008-09-05 07:08:32 51°19.201 2°45.217 285 12.4 286 12.3
2008-09-05 07:08:37 51°19.206 2°45.19 285.1 12.4 285 11.4
2008-09-05 07:08:42 51°19.21 2°45.164 284.7 12.4 286 11.5
2008-09-05 07:08:47 51°19.215 2°45.137 285.1 12.5 286 12.6
2008-09-05 07:08:52 51°19.22 2°45.11 285.1 12.6 285 12.2
2008-09-05 07:08:57 51°19.225 2°45.084 284.6 12.5 286 11.7
2008-09-05 07:09:02 51°19.229 2°45.057 285 12.5 286 11.2
2008-09-05 07:09:07 51°19.234 2°45.031 285.2 12.4 285 10.2
2008-09-05 07:09:12 51°19.239 2°45.004 284.7 12.5 286 11.7
2008-09-05 07:09:17 51°19.243 2°44.977 285.1 12.6 286 11.8
2008-09-05 07:09:22 51°19.248 2°44.95 285.1 12.5 284 11.4
2008-09-05 07:09:27 51°19.252 2°44.923 283.6 12.6 285 13.3
2008-09-05 07:09:32 51°19.256 2°44.896 283.4 12.6 282 12.3
2008-09-05 07:09:37 51°19.26 2°44.869 282.6 12.6 283 13.2
2008-09-05 07:09:42 51°19.263 2°44.842 281.8 12.6 282 13.9
2008-09-05 07:09:47 51°19.267 2°44.814 281.7 12.6 283 15.2
2008-09-05 07:09:52 51°19.27 2°44.787 281.5 12.6 282 15.7
2008-09-05 07:09:57 51°19.274 2°44.76 281.4 12.6 281 16.9
2008-09-05 07:10:02 51°19.277 2°44.733 280.8 12.6 281 17.7
2008-09-05 07:10:07 51°19.28 2°44.705 280 12.5 279 18.4
2008-09-05 07:10:12 51°19.283 2°44.678 278.6 12.5 279 19.7
2008-09-05 07:10:17 51°19.285 2°44.651 278 12.4 278 20.3
2008-09-05 07:10:22 51°19.288 2°44.623 277.8 12.5 279 20.6
2008-09-05 07:10:27 51°19.29 2°44.596 277.7 12.5 279 20.8
2008-09-05 07:10:32 51°19.293 2°44.569 278.4 12.5 280 21
2008-09-05 07:10:37 51°19.296 2°44.542 278.7 12.4 280 21.1
2008-09-05 07:10:42 51°19.299 2°44.514 279.2 12.4 281 21.3
2008-09-05 07:10:47 51°19.303 2°44.487 280 12.4 282 21.3
2008-09-05 07:10:52 51°19.307 2°44.461 281.2 12.4 283 21.4
2008-09-05 07:10:57 51°19.31 2°44.434 281.8 12.4 282 21.6
2008-09-05 07:11:02 51°19.314 2°44.407 281.2 12.5 283 21.5
2008-09-05 07:11:07 51°19.318 2°44.38 281.5 12.4 281 21.6
2008-09-05 07:11:12 51°19.321 2°44.353 281.5 12.4 282 21.8
2008-09-05 07:11:17 51°19.325 2°44.326 280.6 12.4 282 21.9
2008-09-05 07:11:22 51°19.329 2°44.3 280.4 12.4 283 21.9
2008-09-05 07:11:27 51°19.332 2°44.273 281.1 12.3 281 22
2008-09-05 07:11:32 51°19.335 2°44.246 280.8 12.3 283 22.2
2008-09-05 07:11:37 51°19.339 2°44.22 281 12.3 282 22.3
2008-09-05 07:11:42 51°19.343 2°44.193 281.4 12.3 283 22.4
2008-09-05 07:11:47 51°19.347 2°44.166 280.9 12.3 283 22.5
2008-09-05 07:11:52 51°19.351 2°44.14 281.1 12.3 284 22.4
2008-09-05 07:11:57 51°19.355 2°44.113 281.8 12.3 283 22.7
2008-09-05 07:12:02 51°19.359 2°44.087 282 12.3 284 22.7
2008-09-05 07:12:07 51°19.362 2°44.06 282 12.3 282 22.6
2008-09-05 07:12:12 51°19.366 2°44.034 281.4 12.3 282 22.7
2008-09-05 07:12:17 51°19.37 2°44.007 280.7 12.3 282 22.8
2008-09-05 07:12:22 51°19.374 2°43.981 280.7 12.2 283 22.9
2008-09-05 07:12:27 51°19.377 2°43.954 280.8 12.3 282 23.1
2008-09-05 07:12:32 51°19.38 2°43.928 280.9 12.3 282 23
2008-09-05 07:12:37 51°19.384 2°43.901 280.8 12.3 282 23.1
2008-09-05 07:12:42 51°19.387 2°43.874 280.3 12.3 281 23.3
2008-09-05 07:12:47 51°19.391 2°43.848 280.1 12.3 283 23.2
2008-09-05 07:12:52 51°19.395 2°43.821 280.5 12.3 281 23.3
2008-09-05 07:12:57 51°19.398 2°43.794 280.6 12.3 282 23.4
2008-09-05 07:13:02 51°19.401 2°43.767 280.6 12.3 280 23.4
2008-09-05 07:13:07 51°19.405 2°43.741 280 12.3 283 23.5
2008-09-05 07:13:12 51°19.409 2°43.714 280.2 12.4 282 23.5
2008-09-05 07:13:17 51°19.412 2°43.688 280.7 12.3 282 23.6
2008-09-05 07:13:22 51°19.415 2°43.661 280.1 12.3 282 23.5
2008-09-05 07:13:27 51°19.419 2°43.634 280.5 12.3 282 23.7
2008-09-05 07:13:32 51°19.423 2°43.608 281.2 12.3 283 23.7
2008-09-05 07:13:37 51°19.427 2°43.581 281.7 12.4 283 23.7
2008-09-05 07:13:42 51°19.431 2°43.554 282.8 12.4 284 23.8
2008-09-05 07:13:47 51°19.435 2°43.528 282.5 12.3 284 23.8
2008-09-05 07:13:52 51°19.44 2°43.502 283 12.3 284 23.8
2008-09-05 07:13:57 51°19.444 2°43.475 283.3 12.3 284 23.8
2008-09-05 07:14:02 51°19.448 2°43.448 283.2 12.3 283 23.9
2008-09-05 07:14:07 51°19.452 2°43.422 282.9 12.3 285 24.1
2008-09-05 07:14:12 51°19.456 2°43.396 283 12.3 283 24.1
2008-09-05 07:14:17 51°19.459 2°43.369 282.1 12.3 282 24.1
2008-09-05 07:14:22 51°19.463 2°43.343 281.2 12.2 281 24.4
2008-09-05 07:14:27 51°19.466 2°43.316 281.1 12.3 283 24.3
2008-09-05 07:14:32 51°19.47 2°43.289 281.1 12.3 282 24.2
2008-09-05 07:14:37 51°19.474 2°43.263 281.3 12.3 283 24.4
2008-09-05 07:14:42 51°19.478 2°43.236 281.7 12.3 282 24.3
2008-09-05 07:14:47 51°19.482 2°43.21 282.6 12.3 285 24.4
2008-09-05 07:14:52 51°19.486 2°43.183 283.3 12.3 284 24.5
2008-09-05 07:14:57 51°19.491 2°43.157 283.7 12.3 284 24.4
2008-09-05 07:15:02 51°19.495 2°43.13 283.6 12.3 284 24.4
2008-09-05 07:15:07 51°19.499 2°43.104 283.6 12.3 285 24.3
2008-09-05 07:15:12 51°19.504 2°43.077 283.7 12.3 285 24.1
2008-09-05 07:15:17 51°19.508 2°43.051 283.9 12.3 284 24.4
2008-09-05 07:15:22 51°19.512 2°43.025 284.1 12.3 285 24.5
2008-09-05 07:15:27 51°19.516 2°42.998 284.2 12.3 285 24.5
2008-09-05 07:15:32 51°19.521 2°42.972 283.9 12.3 284 24.4
2008-09-05 07:15:37 51°19.524 2°42.945 283.7 12.3 283 24.5
2008-09-05 07:15:42 51°19.529 2°42.919 283 12.3 285 24.5
2008-09-05 07:15:47 51°19.533 2°42.892 283.2 12.3 283 24.6
2008-09-05 07:15:52 51°19.537 2°42.866 283.3 12.3 284 24.7
2008-09-05 07:15:57 51°19.541 2°42.839 283.3 12.4 284 24.8
2008-09-05 07:16:02 51°19.545 2°42.812 283.2 12.4 284 24.8
2008-09-05 07:16:07 51°19.549 2°42.786 283.2 12.3 284 24.6
2008-09-05 07:16:12 51°19.553 2°42.759 283.5 12.4 282 24.7
2008-09-05 07:16:17 51°19.556 2°42.732 282.6 12.3 285 24.7
2008-09-05 07:16:22 51°19.561 2°42.706 282.4 12.3 283 24.8
2008-09-05 07:16:27 51°19.564 2°42.679 282.8 12.3 282 24.8
2008-09-05 07:16:32 51°19.568 2°42.653 281.8 12.3 283 24.7
2008-09-05 07:16:37 51°19.572 2°42.626 282 12.3 283 24.7
2008-09-05 07:16:42 51°19.576 2°42.6 282.6 12.3 283 24.7
2008-09-05 07:16:47 51°19.579 2°42.573 282.8 12.3 283 24.7
2008-09-05 07:16:52 51°19.583 2°42.546 282.4 12.4 282 24.6
2008-09-05 07:16:57 51°19.587 2°42.52 281.5 12.3 282 24.5
2008-09-05 07:17:02 51°19.59 2°42.493 281.3 12.3 283 24.6
2008-09-05 07:17:07 51°19.594 2°42.467 282.3 12.3 283 24.6
2008-09-05 07:17:12 51°19.599 2°42.44 282.7 12.4 284 24.6
2008-09-05 07:17:17 51°19.602 2°42.413 282.9 12.4 284 24.2
2008-09-05 07:17:22 51°19.607 2°42.387 283.4 12.4 284 24.4
2008-09-05 07:17:27 51°19.611 2°42.36 283.3 12.4 284 24.2
2008-09-05 07:17:32 51°19.615 2°42.334 283.5 12.4 284 24.3
2008-09-05 07:17:37 51°19.619 2°42.307 283.2 12.4 283 24.2
2008-09-05 07:17:42 51°19.623 2°42.281 282.9 12.4 283 23.8
2008-09-05 07:17:47 51°19.627 2°42.254 282.7 12.3 283 24.1
2008-09-05 07:17:52 51°19.631 2°42.228 282.5 12.3 283 23.7
2008-09-05 07:17:57 51°19.635 2°42.201 282.4 12.3 283 23.7
2008-09-05 07:18:02 51°19.639 2°42.175 282.6 12.3 284 23.9
2008-09-05 07:18:07 51°19.642 2°42.148 283.1 12.4 282 23.4
2008-09-05 07:18:12 51°19.647 2°42.122 282.3 12.4 284 23.2
2008-09-05 07:18:17 51°19.65 2°42.095 282.7 12.3 282 23.3
2008-09-05 07:18:22 51°19.655 2°42.068 282.4 12.4 285 23.3
2008-09-05 07:18:27 51°19.658 2°42.042 282.8 12.3 282 23.1
2008-09-05 07:18:32 51°19.662 2°42.015 282.4 12.3 283 22.9
2008-09-05 07:18:37 51°19.666 2°41.988 281.7 12.4 282 22.6
2008-09-05 07:18:42 51°19.67 2°41.961 281.3 12.4 283 22.7
2008-09-05 07:18:47 51°19.673 2°41.935 281.7 12.4 283 22.3
2008-09-05 07:18:52 51°19.677 2°41.908 282 12.4 284 21.8
2008-09-05 07:18:57 51°19.681 2°41.882 282.4 12.3 284 20.6
2008-09-05 07:19:02 51°19.686 2°41.855 283 12.4 284 21.9
2008-09-05 07:19:07 51°19.69 2°41.829 283.5 12.3 282 21.4
2008-09-05 07:19:12 51°19.694 2°41.802 283 12.4 283 21.3
2008-09-05 07:19:17 51°19.697 2°41.775 282.8 12.4 283 20.8
2008-09-05 07:19:22 51°19.701 2°41.749 282.8 12.3 282 21.1
2008-09-05 07:19:27 51°19.704 2°41.722 281.5 12.3 281 21.1
2008-09-05 07:19:32 51°19.708 2°41.695 281.4 12.3 282 19.4
2008-09-05 07:19:37 51°19.711 2°41.668 281 12.3 282 19.8
2008-09-05 07:19:42 51°19.714 2°41.641 280.8 12.3 280 19.7
2008-09-05 07:19:47 51°19.718 2°41.615 280.3 12.3 280 21.1
2008-09-05 07:19:52 51°19.72 2°41.588 280 12.3 280 21
2008-09-05 07:19:57 51°19.724 2°41.561 279.8 12.3 282 20.5
2008-09-05 07:20:02 51°19.727 2°41.534 280.7 12.4 280 20.6
2008-09-05 07:20:07 51°19.731 2°41.508 280.6 12.4 283 19.7
2008-09-05 07:20:12 51°19.734 2°41.481 281.6 12.3 281 18.6
2008-09-05 07:20:17 51°19.739 2°41.454 281.7 12.4 285 18.4
2008-09-05 07:20:22 51°19.743 2°41.427 282.9 12.4 283 17.8
2008-09-05 07:20:27 51°19.747 2°41.401 283.1 12.3 285 16.2
2008-09-05 07:20:32 51°19.751 2°41.374 282.9 12.4 283 17.5
2008-09-05 07:20:37 51°19.755 2°41.348 282.8 12.3 285 18.4
2008-09-05 07:20:42 51°19.759 2°41.321 282.9 12.3 282 19
2008-09-05 07:20:47 51°19.763 2°41.295 282.4 12.5 285 19
2008-09-05 07:20:52 51°19.767 2°41.268 283.4 12.4 283 19
2008-09-05 07:20:57 51°19.771 2°41.241 283 12.4 282 17.4
2008-09-05 07:21:02 51°19.775 2°41.215 282.2 12.4 283 18.4
2008-09-05 07:21:07 51°19.779 2°41.188 282.4 12.4 283 17
2008-09-05 07:21:12 51°19.783 2°41.161 282.7 12.5 285 18.1
2008-09-05 07:21:17 51°19.787 2°41.134 283.4 12.5 284 18.5
2008-09-05 07:21:22 51°19.791 2°41.108 283.5 12.4 284 18.9
2008-09-05 07:21:27 51°19.796 2°41.081 283.3 12.5 284 16.7
2008-09-05 07:21:32 51°19.8 2°41.054 283.1 12.5 284 18.3
2008-09-05 07:21:37 51°19.804 2°41.027 283.2 12.4 283 20.5
2008-09-05 07:21:42 51°19.808 2°41.001 282.9 12.5 284 21.1
2008-09-05 07:21:47 51°19.813 2°40.974 282.6 12.5 284 21.5
2008-09-05 07:21:52 51°19.817 2°40.947 283 12.4 284 20.9
2008-09-05 07:21:57 51°19.821 2°40.92 283.1 12.5 283 21.5
2008-09-05 07:22:02 51°19.824 2°40.893 282.6 12.5 283 22.6
2008-09-05 07:22:07 51°19.828 2°40.867 282.1 12.4 283 22.6
2008-09-05 07:22:12 51°19.832 2°40.84 282 12.5 281 22.8
2008-09-05 07:22:17 51°19.836 2°40.813 281 12.5 285 22
2008-09-05 07:22:22 51°19.84 2°40.786 282.4 12.5 283 19.7
2008-09-05 07:22:27 51°19.844 2°40.759 282.4 12.4 284 19.4
2008-09-05 07:22:32 51°19.848 2°40.732 282.7 12.5 284 17.4
2008-09-05 07:22:37 51°19.852 2°40.705 283 12.5 284 18.3
2008-09-05 07:22:42 51°19.857 2°40.679 283 12.6 284 18.1
2008-09-05 07:22:47 51°19.861 2°40.652 283.6 12.5 284 13.6
2008-09-05 07:22:52 51°19.865 2°40.625 283.2 12.5 283 17.8
2008-09-05 07:22:57 51°19.868 2°40.598 282.1 12.6 284 20.3
2008-09-05 07:23:02 51°19.872 2°40.571 281.6 12.6 283 22.2
2008-09-05 07:23:07 51°19.876 2°40.544 281.9 12.6 283 23.8
2008-09-05 07:23:12 51°19.88 2°40.517 282.2 12.6 282 25.2
2008-09-05 07:23:17 51°19.884 2°40.49 281.8 12.5 283 26.3
2008-09-05 07:23:22 51°19.888 2°40.463 282 12.4 281 27.1
2008-09-05 07:23:27 51°19.891 2°40.436 280.7 12.4 283 27.4
2008-09-05 07:23:32 51°19.895 2°40.409 281.3 12.4 283 27.6
2008-09-05 07:23:37 51°19.898 2°40.382 281.6 12.4 281 27.5
2008-09-05 07:23:42 51°19.902 2°40.356 281.1 12.3 282 27.6
2008-09-05 07:23:47 51°19.905 2°40.329 280.6 12.3 281 27.7
2008-09-05 07:23:52 51°19.909 2°40.302 280.8 12.4 284 27.7
2008-09-05 07:23:57 51°19.912 2°40.275 281.7 12.4 281 27.8
2008-09-05 07:24:02 51°19.916 2°40.248 280.7 12.4 283 27.6
2008-09-05 07:24:07 51°19.92 2°40.222 281.3 12.3 282 27.8
2008-09-05 07:24:12 51°19.923 2°40.195 281.5 12.4 282 27.7
2008-09-05 07:24:17 51°19.928 2°40.168 281.6 12.4 285 27.9
2008-09-05 07:24:22 51°19.931 2°40.142 282.3 12.4 283 28.2
2008-09-05 07:24:27 51°19.936 2°40.115 282.2 12.3 284 28.1
2008-09-05 07:24:32 51°19.94 2°40.089 282.6 12.3 284 27.8
2008-09-05 07:24:37 51°19.944 2°40.062 282.5 12.4 283 27.9
2008-09-05 07:24:42 51°19.948 2°40.035 282.6 12.4 285 27.6
2008-09-05 07:24:47 51°19.952 2°40.009 283.1 12.4 282 27.7
2008-09-05 07:24:52 51°19.955 2°39.982 282.4 12.4 283 27.7
2008-09-05 07:24:57 51°19.959 2°39.955 282.4 12.4 283 27.9
2008-09-05 07:25:02 51°19.963 2°39.929 283 12.3 283 28.1
2008-09-05 07:25:07 51°19.967 2°39.902 282.2 12.3 283 28
2008-09-05 07:25:12 51°19.971 2°39.875 282.1 12.4 283 28
2008-09-05 07:25:17 51°19.975 2°39.849 282.4 12.4 282 27.9
2008-09-05 07:25:22 51°19.979 2°39.822 282.3 12.5 284 27.9
2008-09-05 07:25:27 51°19.983 2°39.795 282.8 12.5 283 27.9
2008-09-05 07:25:32 51°19.987 2°39.768 282.5 12.5 284 28
2008-09-05 07:25:37 51°19.991 2°39.741 282.6 12.5 283 27.8
2008-09-05 07:25:42 51°19.995 2°39.715 282.9 12.4 284 28.1
2008-09-05 07:25:47 51°19.999 2°39.688 283 12.4 283 28.1
2008-09-05 07:25:52 51°20.003 2°39.661 283.1 12.4 284 28.1
2008-09-05 07:25:57 51°20.007 2°39.634 283.1 12.4 284 28.1
2008-09-05 07:26:02 51°20.012 2°39.608 283.6 12.4 283 28
2008-09-05 07:26:07 51°20.016 2°39.581 283 12.5 284 28.3
2008-09-05 07:26:12 51°20.019 2°39.554 282.9 12.4 283 28.1
2008-09-05 07:26:17 51°20.024 2°39.527 282.9 12.4 284 27.8
2008-09-05 07:26:22 51°20.028 2°39.501 283.2 12.4 284 27.5
2008-09-05 07:26:27 51°20.032 2°39.474 283.4 12.4 284 27.4
2008-09-05 07:26:32 51°20.036 2°39.447 283.4 12.4 282 27.1
2008-09-05 07:26:37 51°20.04 2°39.42 282.7 12.4 283 27
2008-09-05 07:26:42 51°20.043 2°39.393 282.5 12.4 282 26.7
2008-09-05 07:26:47 51°20.047 2°39.367 282.1 12.3 282 26.6
2008-09-05 07:26:52 51°20.051 2°39.34 281.7 12.3 282 26.4
2008-09-05 07:26:57 51°20.054 2°39.314 281.5 12.3 282 26.1
2008-09-05 07:27:02 51°20.058 2°39.287 281.1 12.4 282 26.1
2008-09-05 07:27:07 51°20.061 2°39.26 281.4 12.4 282 25.8
2008-09-05 07:27:12 51°20.065 2°39.233 281.4 12.4 283 25.6
2008-09-05 07:27:17 51°20.069 2°39.206 281.8 12.4 282 25.3
2008-09-05 07:27:22 51°20.073 2°39.179 281.9 12.4 283 25.1
2008-09-05 07:27:27 51°20.077 2°39.152 282.6 12.5 284 25
2008-09-05 07:27:32 51°20.081 2°39.125 283.1 12.5 284 24.7
2008-09-05 07:27:37 51°20.085 2°39.099 283.5 12.4 284 24.6
2008-09-05 07:27:42 51°20.089 2°39.072 283.4 12.5 283 24.6
2008-09-05 07:27:47 51°20.093 2°39.045 283.6 12.4 283 24.3
2008-09-05 07:27:52 51°20.097 2°39.018 283.2 12.5 283 24.3
2008-09-05 07:27:57 51°20.1 2°38.991 282.8 12.5 281 24
2008-09-05 07:28:02 51°20.105 2°38.964 282.2 12.4 284 23.9
2008-09-05 07:28:07 51°20.108 2°38.937 282.8 12.5 282 23.9
2008-09-05 07:28:12 51°20.112 2°38.91 282.6 12.5 283 23.5
2008-09-05 07:28:17 51°20.116 2°38.883 282.6 12.5 282 23.5
2008-09-05 07:28:22 51°20.12 2°38.856 283 12.4 284 23.5
2008-09-05 07:28:27 51°20.124 2°38.829 283.2 12.5 283 23.1
2008-09-05 07:28:32 51°20.128 2°38.802 283 12.5 284 22.6
2008-09-05 07:28:37 51°20.132 2°38.775 283.4 12.5 282 22.4
2008-09-05 07:28:42 51°20.136 2°38.748 282.7 12.5 282 22.8
2008-09-05 07:28:47 51°20.139 2°38.721 282 12.5 282 23.5
2008-09-05 07:28:52 51°20.143 2°38.694 281.7 12.5 282 23.7
2008-09-05 07:28:57 51°20.146 2°38.667 282.1 12.5 282 23.8
2008-09-05 07:29:02 51°20.149 2°38.64 281.7 12.4 281 23.9
2008-09-05 07:29:07 51°20.153 2°38.613 280.8 12.4 282 23.7
2008-09-05 07:29:12 51°20.156 2°38.586 281.7 12.5 281 23.5
2008-09-05 07:29:17 51°20.16 2°38.559 281.4 12.5 282 23.3
2008-09-05 07:29:22 51°20.163 2°38.532 281.7 12.5 282 23
2008-09-05 07:29:27 51°20.168 2°38.505 281.8 12.5 284 23.1
2008-09-05 07:29:32 51°20.171 2°38.477 282.8 12.5 282 22.4
2008-09-05 07:29:37 51°20.176 2°38.451 282.8 12.6 284 22.8
2008-09-05 07:29:42 51°20.18 2°38.423 283.4 12.5 283 23.3
2008-09-05 07:29:47 51°20.184 2°38.396 283.4 12.5 283 23.5
2008-09-05 07:29:52 51°20.187 2°38.369 283.2 12.5 282 23.6
2008-09-05 07:29:57 51°20.191 2°38.342 282.6 12.5 283 23.6
2008-09-05 07:30:02 51°20.195 2°38.315 282.4 12.4 282 22.3
2008-09-05 07:30:07 51°20.199 2°38.288 282.4 12.4 283 22.8
2008-09-05 07:30:12 51°20.202 2°38.261 281.8 12.4 279 23.1
2008-09-05 07:30:17 51°20.205 2°38.235 280.6 12.4 281 23.1
2008-09-05 07:30:22 51°20.208 2°38.208 280.6 12.4 281 23.2
2008-09-05 07:30:27 51°20.212 2°38.181 280.9 12.5 282 23.2
2008-09-05 07:30:32 51°20.215 2°38.154 280.8 12.4 281 23.2
2008-09-05 07:30:37 51°20.219 2°38.127 280.6 12.5 282 23
2008-09-05 07:30:42 51°20.222 2°38.1 281.1 12.5 282 22.7
2008-09-05 07:30:47 51°20.226 2°38.073 282.4 12.6 283 22.8
2008-09-05 07:30:52 51°20.229 2°38.045 282.2 12.5 281 21.7
2008-09-05 07:30:57 51°20.234 2°38.019 282.2 12.5 285 21.9
2008-09-05 07:31:02 51°20.237 2°37.992 282.5 12.5 282 22.6
2008-09-05 07:31:07 51°20.241 2°37.965 282.4 12.5 283 22.5
2008-09-05 07:31:12 51°20.245 2°37.938 282.5 12.6 282 21.7
2008-09-05 07:31:17 51°20.248 2°37.91 282.3 12.5 282 21.3
2008-09-05 07:31:22 51°20.253 2°37.884 282.2 12.5 283 21.6
2008-09-05 07:31:27 51°20.256 2°37.857 282.5 12.5 283 22.4
2008-09-05 07:31:32 51°20.261 2°37.83 283 12.5 284 22.7
2008-09-05 07:31:37 51°20.264 2°37.803 283 12.5 283 22.6
2008-09-05 07:31:42 51°20.268 2°37.776 283.5 12.5 283 21.7
2008-09-05 07:31:47 51°20.272 2°37.748 283.2 12.5 283 21.2
2008-09-05 07:31:52 51°20.275 2°37.721 282.4 12.5 281 22.9
2008-09-05 07:31:57 51°20.279 2°37.694 281.5 12.5 283 22.4
2008-09-05 07:32:02 51°20.283 2°37.667 281.4 12.6 283 21.3
2008-09-05 07:32:07 51°20.286 2°37.64 282.1 12.6 282 22.5
2008-09-05 07:32:12 51°20.29 2°37.613 282.2 12.5 283 22.6
2008-09-05 07:32:17 51°20.294 2°37.586 282.3 12.5 282 22.5
2008-09-05 07:32:22 51°20.298 2°37.559 282.2 12.6 282 21.6
2008-09-05 07:32:27 51°20.302 2°37.532 282.5 12.6 283 21.8
2008-09-05 07:32:32 51°20.306 2°37.504 283.3 12.7 283 22.6
2008-09-05 07:32:37 51°20.31 2°37.478 283.1 12.6 285 22.3
2008-09-05 07:32:42 51°20.314 2°37.451 283.4 12.4 284 20.8
2008-09-05 07:32:47 51°20.318 2°37.424 283.1 12.5 283 22.2
2008-09-05 07:32:52 51°20.322 2°37.397 282.9 12.4 284 22.3
2008-09-05 07:32:57 51°20.326 2°37.37 283.1 12.5 283 22.4
2008-09-05 07:33:02 51°20.33 2°37.343 282.6 12.5 283 21.1
2008-09-05 07:33:07 51°20.334 2°37.316 282.4 12.6 282 22.1
2008-09-05 07:33:12 51°20.337 2°37.289 282.2 12.6 282 22.4
2008-09-05 07:33:17 51°20.341 2°37.261 281.7 12.6 283 22
2008-09-05 07:33:22 51°20.345 2°37.234 281.5 12.6 283 21.1
2008-09-05 07:33:27 51°20.349 2°37.207 281.8 12.5 282 20.7
2008-09-05 07:33:32 51°20.352 2°37.18 282.1 12.5 283 21.5
2008-09-05 07:33:37 51°20.356 2°37.153 282.2 12.4 282 22.2
2008-09-05 07:33:42 51°20.36 2°37.127 282.2 12.4 283 22.4
2008-09-05 07:33:47 51°20.363 2°37.1 281.4 12.5 281 22.5
2008-09-05 07:33:52 51°20.367 2°37.073 280.6 12.4 284 22.3
2008-09-05 07:33:57 51°20.372 2°37.046 282.1 12.5 283 22.3
2008-09-05 07:34:02 51°20.376 2°37.019 282.9 12.5 285 21.8
2008-09-05 07:34:07 51°20.38 2°36.992 283.6 12.5 285 21.6
2008-09-05 07:34:12 51°20.385 2°36.966 284.1 12.5 286 22.2
2008-09-05 07:34:17 51°20.389 2°36.939 284.4 12.5 284 22.1
2008-09-05 07:34:22 51°20.394 2°36.912 284.4 12.6 286 21.1
2008-09-05 07:34:27 51°20.398 2°36.885 284.5 12.5 285 21.8
2008-09-05 07:34:32 51°20.403 2°36.859 284.8 12.6 286 21.3
2008-09-05 07:34:37 51°20.408 2°36.832 284.9 12.5 285 20.9
2008-09-05 07:34:42 51°20.413 2°36.805 285.5 12.5 287 21.7
2008-09-05 07:34:47 51°20.418 2°36.779 285.1 12.5 287 21.5
2008-09-05 07:34:52 51°20.423 2°36.752 285.2 12.5 287 21
2008-09-05 07:34:57 51°20.427 2°36.725 285.7 12.6 285 21.8
2008-09-05 07:35:02 51°20.432 2°36.699 285.1 12.6 287 20.7
2008-09-05 07:35:07 51°20.437 2°36.672 285.5 12.6 286 19.8
2008-09-05 07:35:12 51°20.442 2°36.645 286.2 12.5 286 20.6
2008-09-05 07:35:17 51°20.447 2°36.619 286.3 12.5 287 20.6
2008-09-05 07:35:22 51°20.452 2°36.592 286.5 12.5 286 20.5
2008-09-05 07:35:27 51°20.458 2°36.566 286.5 12.6 288 20.6
2008-09-05 07:35:32 51°20.463 2°36.539 287.3 12.5 286 20.9
2008-09-05 07:35:37 51°20.468 2°36.513 286.8 12.5 288 20.7
2008-09-05 07:35:42 51°20.473 2°36.487 286.3 12.4 287 20.1
2008-09-05 07:35:47 51°20.478 2°36.46 286.5 12.5 286 20.3
2008-09-05 07:35:52 51°20.482 2°36.433 285.6 12.5 285 20.4
2008-09-05 07:35:57 51°20.488 2°36.407 284.8 12.5 287 19.9
2008-09-05 07:36:02 51°20.493 2°36.38 285.6 12.5 287 19.5
2008-09-05 07:36:07 51°20.498 2°36.354 286 12.5 286 20.1
2008-09-05 07:36:12 51°20.503 2°36.327 285.7 12.5 286 19.5
2008-09-05 07:36:17 51°20.508 2°36.301 285.8 12.5 287 19.4
2008-09-05 07:36:22 51°20.513 2°36.274 285.3 12.5 286 19.9
2008-09-05 07:36:27 51°20.517 2°36.248 284.5 12.5 285 19.4
2008-09-05 07:36:32 51°20.522 2°36.221 284.5 12.5 286 19
2008-09-05 07:36:37 51°20.527 2°36.195 284.9 12.5 287 19.5
2008-09-05 07:36:42 51°20.532 2°36.168 285.1 12.6 287 19.5
2008-09-05 07:36:47 51°20.537 2°36.142 285.8 12.5 287 19.2
2008-09-05 07:36:52 51°20.542 2°36.115 285.9 12.6 285 18.7
2008-09-05 07:36:57 51°20.546 2°36.088 285.3 12.5 285 19
2008-09-05 07:37:02 51°20.551 2°36.061 284.4 12.6 286 19.3
2008-09-05 07:37:07 51°20.556 2°36.035 284.7 12.6 286 18.8
2008-09-05 07:37:12 51°20.56 2°36.008 285.1 12.7 285 19.3
2008-09-05 07:37:17 51°20.565 2°35.981 284.8 12.6 285 19.8
2008-09-05 07:37:22 51°20.57 2°35.954 283.8 12.7 286 19.4
2008-09-05 07:37:27 51°20.574 2°35.927 284.4 12.6 286 20.2
2008-09-05 07:37:32 51°20.579 2°35.9 285.1 12.7 286 20.7
2008-09-05 07:37:37 51°20.584 2°35.873 285 12.7 286 20.8
2008-09-05 07:37:42 51°20.589 2°35.846 285.4 12.6 286 21
2008-09-05 07:37:47 51°20.594 2°35.819 285.9 12.7 288 21.9
2008-09-05 07:37:52 51°20.599 2°35.792 286.6 12.7 287 22.2
2008-09-05 07:37:57 51°20.604 2°35.766 287 12.6 288 22.9
2008-09-05 07:38:02 51°20.609 2°35.739 286.8 12.6 286 23.4
2008-09-05 07:38:07 51°20.614 2°35.712 286 12.7 287 24
2008-09-05 07:38:12 51°20.619 2°35.685 285.9 12.6 287 24.5
2008-09-05 07:38:17 51°20.624 2°35.658 286 12.6 286 25
2008-09-05 07:38:22 51°20.629 2°35.632 285.4 12.6 287 25.5
2008-09-05 07:38:27 51°20.634 2°35.605 285.7 12.6 286 25
2008-09-05 07:38:32 51°20.638 2°35.578 285.4 12.6 285 25.5
2008-09-05 07:38:37 51°20.643 2°35.551 284.6 12.5 285 26.9
2008-09-05 07:38:42 51°20.647 2°35.524 284.5 12.6 284 27.4
2008-09-05 07:38:47 51°20.652 2°35.497 284.4 12.5 284 27.6
2008-09-05 07:38:52 51°20.656 2°35.471 284.2 12.5 285 27.3
2008-09-05 07:38:57 51°20.661 2°35.444 284.4 12.6 286 25.3
2008-09-05 07:39:02 51°20.665 2°35.417 285 12.5 284 22.5
2008-09-05 07:39:07 51°20.669 2°35.39 284.4 12.5 285 25.2